Time;durP1;ratioP1;P1;durP2;ratioP2;P2;SDS_P1;SDS_P2;PMS_P1;PMS_P2;Temp;Humidity;BMP_temperature;BMP_pressure;BME280_temperature;BME280_humidity;BME280_pressure;Samples;Min_cycle;Max_cycle;Signal;HPM_P1;HPM_P2
2021/09/17 00:01:38;;;;;;;5.60;2.65;;;15.10;99.90;;;;;;4952851;29;20559;-88
2021/09/17 00:04:05;;;;;;;3.45;2.40;;;15.10;99.90;;;;;;4931104;29;20051;-87
2021/09/17 00:06:32;;;;;;;3.50;2.40;;;15.10;99.90;;;;;;4931536;29;20516;-85
2021/09/17 00:08:59;;;;;;;2.88;2.05;;;15.00;99.90;;;;;;4935497;29;20059;-84
2021/09/17 00:11:28;;;;;;;5.00;2.22;;;14.90;99.90;;;;;;4952495;29;20142;-86
2021/09/17 00:13:54;;;;;;;4.72;1.95;;;14.80;99.90;;;;;;4936168;29;20106;-85
2021/09/17 00:16:21;;;;;;;2.63;1.75;;;14.80;99.90;;;;;;4936317;29;20138;-85
2021/09/17 00:18:48;;;;;;;2.17;1.77;;;14.70;99.90;;;;;;4936938;29;20047;-84
2021/09/17 00:21:15;;;;;;;5.05;2.00;;;14.70;99.90;;;;;;4936287;29;20552;-84
2021/09/17 00:23:42;;;;;;;4.03;2.38;;;14.60;99.90;;;;;;4952996;29;20154;-85
2021/09/17 00:26:09;;;;;;;3.55;2.15;;;14.60;99.90;;;;;;4952816;29;20051;-85
2021/09/17 00:28:36;;;;;;;2.75;2.15;;;14.50;99.90;;;;;;4935728;29;20047;-83
2021/09/17 00:31:03;;;;;;;5.43;2.13;;;14.70;99.90;;;;;;4936156;29;20552;-83
2021/09/17 00:33:31;;;;;;;9.27;2.30;;;14.50;99.90;;;;;;4953730;29;20146;-83
2021/09/17 00:35:59;;;;;;;4.22;2.58;;;14.60;99.90;;;;;;4936946;29;20043;-83
2021/09/17 00:38:26;;;;;;;4.80;2.40;;;14.60;99.90;;;;;;4954432;29;20156;-81
2021/09/17 00:40:53;;;;;;;8.80;2.55;;;14.70;99.90;;;;;;4953142;29;20090;-81
2021/09/17 00:43:20;;;;;;;6.35;2.58;;;14.70;99.90;;;;;;4935839;29;20094;-82
2021/09/17 00:45:47;;;;;;;10.15;2.90;;;14.50;99.90;;;;;;4936063;29;20066;-81
2021/09/17 00:48:19;;;;;;;10.23;2.63;;;14.60;99.90;;;;;;4936314;29;20090;-81
2021/09/17 00:50:46;;;;;;;7.05;2.60;;;14.60;99.90;;;;;;4936671;29;20062;-81
2021/09/17 00:53:13;;;;;;;8.32;2.80;;;14.60;99.90;;;;;;4933566;29;20139;-81
2021/09/17 00:55:40;;;;;;;6.65;2.53;;;14.50;99.90;;;;;;4936123;29;20071;-81
2021/09/17 00:58:08;;;;;;;5.53;2.53;;;14.50;99.90;;;;;;4936011;29;20556;-82
2021/09/17 01:00:35;;;;;;;12.52;2.70;;;14.50;99.90;;;;;;4935992;29;20044;-81
2021/09/17 01:03:05;;;;;;;7.03;2.40;;;14.50;99.90;;;;;;4933969;29;20082;-82
2021/09/17 01:05:33;;;;;;;6.65;2.53;;;14.40;99.90;;;;;;4936859;29;20477;-82
2021/09/17 01:08:01;;;;;;;8.57;2.70;;;14.30;99.90;;;;;;4935409;29;20071;-82
2021/09/17 01:10:28;;;;;;;9.13;2.97;;;14.50;99.90;;;;;;4936109;29;20083;-83
2021/09/17 01:12:56;;;;;;;10.90;2.92;;;14.50;99.90;;;;;;4936564;29;20094;-83
2021/09/17 01:15:23;;;;;;;4.57;2.65;;;14.50;99.90;;;;;;4935334;29;20130;-83
2021/09/17 01:17:50;;;;;;;5.10;3.03;;;14.50;99.90;;;;;;4935452;29;20040;-82
2021/09/17 01:20:20;;;;;;;9.13;3.15;;;14.50;99.90;;;;;;4934833;29;20465;-83
2021/09/17 01:22:49;;;;;;;8.02;2.88;;;14.50;99.90;;;;;;4936650;29;20054;-83
2021/09/17 01:25:21;;;;;;;6.05;2.95;;;14.40;99.90;;;;;;4938383;29;20063;-83
2021/09/17 01:27:52;;;;;;;10.00;3.50;;;14.40;99.90;;;;;;4954751;29;20571;-83
2021/09/17 01:30:22;;;;;;;12.20;3.00;;;14.40;99.90;;;;;;4953906;29;20375;-82
2021/09/17 01:32:53;;;;;;;4.35;3.22;;;14.40;99.90;;;;;;4937560;29;20058;-83
2021/09/17 01:35:23;;;;;;;8.50;2.95;;;14.40;99.90;;;;;;4939139;29;20059;-83
2021/09/17 01:37:50;;;;;;;8.27;4.13;;;14.30;99.90;;;;;;4938531;29;20146;-83
2021/09/17 01:40:18;;;;;;;13.18;3.38;;;14.30;99.90;;;;;;4936709;29;20055;-83
2021/09/17 01:42:47;;;;;;;7.97;3.40;;;14.20;99.90;;;;;;4938345;29;20086;-84
2021/09/17 01:45:14;;;;;;;10.18;3.55;;;14.30;99.90;;;;;;4937505;29;20940;-83
2021/09/17 01:47:42;;;;;;;9.68;4.03;;;14.30;99.90;;;;;;4937502;29;20058;-83
2021/09/17 01:50:10;;;;;;;12.40;5.00;;;14.30;99.90;;;;;;4937881;29;20051;-83
2021/09/17 01:52:37;;;;;;;9.93;4.72;;;14.30;99.90;;;;;;4937622;29;20082;-83
2021/09/17 01:55:05;;;;;;;12.85;4.72;;;14.20;99.90;;;;;;4935567;29;20063;-84
2021/09/17 01:57:32;;;;;;;8.35;3.92;;;14.20;99.90;;;;;;4935321;29;20051;-84
2021/09/17 01:59:59;;;;;;;9.13;4.13;;;14.10;99.90;;;;;;4935878;29;20115;-84
2021/09/17 02:02:26;;;;;;;7.97;3.75;;;14.10;99.90;;;;;;4936007;29;20138;-83
2021/09/17 02:04:58;;;;;;;11.48;4.18;;;14.10;99.90;;;;;;4933053;29;20066;-84
2021/09/17 02:07:25;;;;;;;6.47;3.80;;;14.10;99.90;;;;;;4933157;29;20051;-84
2021/09/17 02:09:52;;;;;;;9.55;4.65;;;14.10;99.90;;;;;;4949213;29;20150;-84
2021/09/17 02:12:19;;;;;;;8.88;4.00;;;14.10;99.90;;;;;;4931641;29;20170;-84
2021/09/17 02:14:45;;;;;;;9.82;4.03;;;14.10;99.90;;;;;;4950331;29;20422;-84
2021/09/17 02:17:12;;;;;;;17.17;4.50;;;14.10;99.90;;;;;;4932431;29;20085;-84
2021/09/17 02:19:39;;;;;;;15.60;4.57;;;14.00;99.90;;;;;;4932897;29;20177;-84
2021/09/17 02:22:05;;;;;;;13.55;4.00;;;14.10;99.90;;;;;;4932635;29;20098;-84
2021/09/17 02:24:32;;;;;;;13.93;3.83;;;14.00;99.90;;;;;;4933777;29;20136;-84
2021/09/17 02:26:59;;;;;;;11.23;3.88;;;13.90;99.90;;;;;;4936782;29;20115;-84
2021/09/17 02:29:26;;;;;;;6.57;3.30;;;13.90;99.90;;;;;;4954422;29;20043;-84
2021/09/17 02:31:53;;;;;;;12.13;3.33;;;13.90;99.90;;;;;;4937923;29;20083;-84
2021/09/17 02:34:20;;;;;;;8.70;3.70;;;13.80;99.90;;;;;;4953935;28;20142;-84
2021/09/17 02:36:47;;;;;;;11.27;3.40;;;13.90;99.90;;;;;;4937775;29;20078;-84
2021/09/17 02:39:15;;;;;;;11.30;3.08;;;13.90;99.90;;;;;;4954115;29;20086;-84
2021/09/17 02:41:43;;;;;;;8.10;2.70;;;13.80;99.90;;;;;;4937259;29;20102;-84
2021/09/17 02:44:10;;;;;;;6.57;3.15;;;13.70;99.90;;;;;;4954816;29;20059;-83
2021/09/17 02:46:37;;;;;;;10.88;3.58;;;13.80;99.90;;;;;;4937364;29;20568;-84
2021/09/17 02:49:04;;;;;;;8.75;3.00;;;13.70;99.90;;;;;;4954805;29;20059;-83
2021/09/17 02:51:31;;;;;;;14.18;3.20;;;13.70;99.90;;;;;;4937667;29;20098;-83
2021/09/17 02:53:58;;;;;;;9.55;3.10;;;13.80;99.90;;;;;;4935511;29;20575;-83
2021/09/17 02:56:25;;;;;;;5.60;2.83;;;13.80;99.90;;;;;;4936624;29;20114;-84
2021/09/17 02:58:52;;;;;;;7.53;3.15;;;13.70;99.90;;;;;;4966194;28;20130;-83
2021/09/17 03:01:19;;;;;;;6.43;3.50;;;13.70;99.90;;;;;;4953945;29;20054;-83
2021/09/17 03:03:51;;;;;;;7.93;2.75;;;13.70;99.90;;;;;;4936726;29;20059;-83
2021/09/17 03:06:17;;;;;;;11.02;2.90;;;13.60;99.90;;;;;;4954213;29;20082;-83
2021/09/17 03:08:44;;;;;;;15.05;3.53;;;13.60;99.90;;;;;;4936828;29;20055;-82
2021/09/17 03:11:11;;;;;;;8.98;3.35;;;13.50;99.90;;;;;;4936761;29;20130;-83
2021/09/17 03:13:38;;;;;;;8.88;3.08;;;13.60;99.90;;;;;;4952695;29;20523;-83
2021/09/17 03:16:06;;;;;;;7.60;3.15;;;13.60;99.90;;;;;;4953288;29;20082;-83
2021/09/17 03:18:34;;;;;;;7.97;3.13;;;13.60;99.90;;;;;;4953594;29;20043;-83
2021/09/17 03:21:01;;;;;;;6.13;3.25;;;13.60;99.90;;;;;;4935929;29;20047;-83
2021/09/17 03:23:28;;;;;;;10.05;3.45;;;13.60;99.90;;;;;;4935611;29;20074;-83
2021/09/17 03:25:56;;;;;;;6.75;3.00;;;13.50;99.90;;;;;;4936494;29;20090;-83
2021/09/17 03:28:22;;;;;;;7.53;3.40;;;13.60;99.90;;;;;;4953443;29;20106;-82
2021/09/17 03:30:50;;;;;;;10.25;2.88;;;13.60;99.90;;;;;;4935753;29;20150;-82
2021/09/17 03:33:16;;;;;;;6.13;3.13;;;13.50;99.90;;;;;;4932684;29;20098;-83
2021/09/17 03:35:44;;;;;;;7.22;3.05;;;13.50;99.90;;;;;;4934212;29;20051;-82
2021/09/17 03:38:11;;;;;;;9.75;3.88;;;13.50;99.90;;;;;;4935755;29;20078;-83
2021/09/17 03:40:53;;;;;;;10.88;3.17;;;13.50;99.90;;;;;;4952653;29;20145;-83
2021/09/17 03:43:20;;;;;;;6.88;3.33;;;13.50;99.90;;;;;;4933480;29;20149;-82
2021/09/17 03:45:53;;;;;;;14.25;2.80;;;13.50;99.90;;;;;;4935121;29;20481;-84
2021/09/17 03:48:20;;;;;;;7.78;3.33;;;13.40;99.90;;;;;;4952486;29;20452;-82
2021/09/17 03:50:56;;;;;;;9.40;3.65;;;13.50;99.90;;;;;;4935920;29;20154;-83
2021/09/17 03:53:23;;;;;;;7.90;3.30;;;13.40;99.90;;;;;;4935400;29;20094;-83
2021/09/17 03:55:50;;;;;;;6.70;3.70;;;13.40;99.90;;;;;;4956700;28;20052;-83
2021/09/17 03:58:18;;;;;;;6.78;3.42;;;13.50;99.90;;;;;;4935203;29;20102;-83
2021/09/17 04:00:44;;;;;;;11.82;3.80;;;13.50;99.90;;;;;;4935594;29;20150;-84
2021/09/17 04:03:11;;;;;;;7.35;4.43;;;13.40;99.90;;;;;;4952600;29;20129;-84
2021/09/17 04:05:38;;;;;;;10.50;3.95;;;13.50;99.90;;;;;;4934170;29;20566;-84
2021/09/17 04:08:05;;;;;;;7.88;4.28;;;13.40;99.90;;;;;;4930538;29;20097;-84
2021/09/17 04:10:32;;;;;;;7.30;4.30;;;13.40;99.90;;;;;;4930182;29;20767;-83
2021/09/17 04:12:58;;;;;;;6.50;3.92;;;13.40;99.90;;;;;;4934472;29;20448;-82
2021/09/17 04:15:25;;;;;;;9.75;4.85;;;13.40;99.90;;;;;;4934943;29;20059;-82
2021/09/17 04:17:52;;;;;;;10.65;3.90;;;13.50;99.90;;;;;;4935140;29;20840;-82
2021/09/17 04:20:20;;;;;;;10.25;4.13;;;13.30;99.90;;;;;;4935190;29;20063;-82
2021/09/17 04:22:48;;;;;;;12.10;4.00;;;13.40;99.90;;;;;;4935736;29;20114;-82
2021/09/17 04:25:16;;;;;;;7.40;3.80;;;13.30;99.90;;;;;;4935641;29;20051;-84
2021/09/17 04:27:45;;;;;;;8.88;3.97;;;13.20;99.90;;;;;;4935695;29;20047;-82
2021/09/17 04:30:15;;;;;;;17.80;5.40;;;13.20;99.90;;;;;;4935071;29;20078;-82
2021/09/17 04:32:44;;;;;;;9.18;4.07;;;13.10;99.90;;;;;;4934877;29;20118;-82
2021/09/17 04:35:11;;;;;;;7.50;4.07;;;13.20;99.90;;;;;;4935803;29;20048;-82
2021/09/17 04:37:43;;;;;;;10.07;4.45;;;13.20;99.90;;;;;;4934631;29;20055;-83
2021/09/17 04:40:12;;;;;;;7.80;3.90;;;13.00;99.90;;;;;;4934724;29;21773;-82
2021/09/17 04:42:39;;;;;;;7.03;4.55;;;13.00;99.90;;;;;;4934404;29;20078;-84
2021/09/17 04:45:07;;;;;;;7.93;3.88;;;13.10;99.90;;;;;;4934794;29;20051;-83
2021/09/17 04:47:34;;;;;;;8.93;4.10;;;13.10;99.90;;;;;;4951832;29;20622;-83
2021/09/17 04:50:02;;;;;;;9.32;4.70;;;13.10;99.90;;;;;;4934237;29;20166;-84
2021/09/17 04:52:42;;;;;;;7.15;4.35;;;13.00;99.90;;;;;;4935545;29;20493;-82
2021/09/17 04:55:11;;;;;;;8.55;4.40;;;13.10;99.90;;;;;;4934165;29;20583;-84
2021/09/17 04:57:38;;;;;;;9.10;4.93;;;13.00;99.90;;;;;;4936253;29;20082;-80
2021/09/17 05:00:06;;;;;;;8.18;4.32;;;13.00;99.90;;;;;;4937853;29;20142;-82
2021/09/17 05:02:33;;;;;;;6.68;4.07;;;12.90;99.90;;;;;;4944060;29;20059;-81
2021/09/17 05:05:01;;;;;;;8.13;4.55;;;13.00;99.90;;;;;;4951191;28;20047;-81
2021/09/17 05:07:28;;;;;;;6.90;3.42;;;12.90;99.90;;;;;;4951658;29;20130;-80
2021/09/17 05:09:54;;;;;;;8.30;3.67;;;12.90;99.90;;;;;;4933309;29;20082;-80
2021/09/17 05:12:21;;;;;;;8.45;3.13;;;12.90;99.90;;;;;;4934164;29;20055;-80
2021/09/17 05:14:48;;;;;;;7.40;3.38;;;12.90;99.90;;;;;;4937026;29;20079;-80
2021/09/17 05:17:14;;;;;;;9.30;3.80;;;12.90;99.90;;;;;;4956125;29;20110;-87
2021/09/17 05:19:42;;;;;;;10.05;3.85;;;12.90;99.90;;;;;;4954743;29;20059;-87
2021/09/17 05:22:08;;;;;;;4.68;3.03;;;12.80;99.90;;;;;;4953894;29;20142;-82
2021/09/17 05:24:35;;;;;;;4.85;3.13;;;12.90;99.90;;;;;;4955066;29;20460;-84
2021/09/17 05:27:02;;;;;;;7.22;3.28;;;12.90;99.90;;;;;;4937951;29;20146;-81
2021/09/17 05:29:29;;;;;;;6.20;2.65;;;12.80;99.90;;;;;;4954631;29;20880;-82
2021/09/17 05:31:56;;;;;;;4.07;2.42;;;12.90;99.90;;;;;;4937435;29;20499;-84
2021/09/17 05:34:23;;;;;;;6.50;2.72;;;13.00;99.90;;;;;;4937174;29;20063;-80
2021/09/17 05:36:50;;;;;;;5.13;2.65;;;12.90;99.90;;;;;;4954593;29;20055;-84
2021/09/17 05:39:18;;;;;;;6.70;2.33;;;12.90;99.90;;;;;;4954565;29;20146;-82
2021/09/17 05:41:44;;;;;;;11.00;2.80;;;12.90;99.90;;;;;;4954791;29;20134;-84
2021/09/17 05:44:11;;;;;;;6.25;2.72;;;13.00;99.90;;;;;;4954651;29;20086;-83
2021/09/17 05:46:39;;;;;;;7.22;2.70;;;12.90;99.90;;;;;;4936806;29;20887;-82
2021/09/17 05:49:06;;;;;;;7.32;2.90;;;12.90;99.90;;;;;;4955228;29;20141;-87
2021/09/17 05:51:33;;;;;;;3.03;2.00;;;12.90;99.90;;;;;;4953956;29;20134;-87
2021/09/17 05:54:07;;;;;;;5.90;2.20;;;12.90;99.90;;;;;;4955513;29;20448;-83
2021/09/17 05:56:33;;;;;;;5.45;2.15;;;13.10;99.90;;;;;;4951927;29;20051;-78
2021/09/17 05:59:00;;;;;;;2.70;1.77;;;12.90;99.90;;;;;;4933719;29;20055;-80
2021/09/17 06:01:27;;;;;;;2.35;1.70;;;12.90;99.90;;;;;;4953442;29;20729;-80
2021/09/17 06:03:54;;;;;;;4.45;2.00;;;12.90;99.90;;;;;;4951765;29;20728;-80
2021/09/17 06:06:21;;;;;;;4.90;1.90;;;12.90;99.90;;;;;;4951783;29;20100;-81
2021/09/17 06:08:50;;;;;;;7.90;1.95;;;12.90;99.90;;;;;;4953656;28;20116;-81
2021/09/17 06:11:17;;;;;;;4.97;1.60;;;12.90;99.90;;;;;;4937342;29;20114;-81
2021/09/17 06:13:45;;;;;;;4.03;2.00;;;12.90;99.90;;;;;;4955048;29;20106;-79
2021/09/17 06:16:13;;;;;;;2.00;1.77;;;13.10;99.90;;;;;;4953855;29;20513;-78
2021/09/17 06:18:46;;;;;;;3.78;1.80;;;12.90;99.90;;;;;;4938266;29;20055;-80
2021/09/17 06:21:13;;;;;;;2.50;1.55;;;12.90;99.90;;;;;;4954444;29;20085;-81
2021/09/17 06:23:41;;;;;;;4.60;2.20;;;12.90;99.90;;;;;;4937553;29;20065;-80
2021/09/17 06:26:10;;;;;;;4.13;1.95;;;13.10;99.90;;;;;;4953385;29;20067;-81
2021/09/17 06:28:38;;;;;;;2.85;1.42;;;13.10;99.90;;;;;;4937420;29;20423;-80
2021/09/17 06:31:07;;;;;;;3.38;1.80;;;13.10;99.90;;;;;;4936535;29;20193;-80
2021/09/17 06:33:34;;;;;;;3.65;1.90;;;13.20;99.90;;;;;;4951628;29;20126;-80
2021/09/17 06:36:00;;;;;;;2.22;1.77;;;13.10;99.90;;;;;;4935123;29;20043;-80
2021/09/17 06:38:27;;;;;;;3.95;1.92;;;13.00;99.90;;;;;;4954644;29;20126;-81
2021/09/17 06:40:54;;;;;;;2.50;1.63;;;13.00;99.90;;;;;;4954312;29;20135;-81
2021/09/17 06:43:28;;;;;;;3.88;1.75;;;13.10;99.90;;;;;;4954737;29;20109;-81
2021/09/17 06:45:55;;;;;;;7.47;2.10;;;13.20;99.90;;;;;;4937542;29;20051;-81
2021/09/17 06:48:22;;;;;;;3.58;1.95;;;13.30;99.90;;;;;;4954689;29;20055;-80
2021/09/17 06:50:49;;;;;;;3.50;1.75;;;13.30;99.90;;;;;;4954068;29;20051;-81
2021/09/17 06:53:15;;;;;;;2.95;1.90;;;13.20;99.90;;;;;;4953900;29;20071;-80
2021/09/17 06:55:42;;;;;;;4.57;2.25;;;13.20;99.90;;;;;;4950416;29;20127;-81
2021/09/17 06:58:09;;;;;;;5.90;1.63;;;13.40;99.90;;;;;;4954404;29;20093;-81
2021/09/17 07:00:37;;;;;;;3.85;1.60;;;13.40;99.90;;;;;;4954173;29;20133;-81
2021/09/17 07:03:05;;;;;;;5.13;2.00;;;13.40;99.90;;;;;;4954681;29;20074;-81
2021/09/17 07:05:33;;;;;;;2.10;1.15;;;13.50;99.90;;;;;;4937612;29;20484;-81
2021/09/17 07:08:18;;;;;;;4.03;1.48;;;13.60;99.90;;;;;;4955314;29;20083;-81
2021/09/17 07:10:48;;;;;;;5.88;2.13;;;13.50;99.90;;;;;;4938213;29;20058;-81
2021/09/17 07:13:16;;;;;;;1.50;0.95;;;13.50;99.90;;;;;;4953934;29;20083;-81
2021/09/17 07:15:44;;;;;;;6.57;1.75;;;13.50;99.90;;;;;;4969524;28;20065;-80
2021/09/17 07:18:12;;;;;;;5.70;1.45;;;13.60;99.90;;;;;;4936949;29;20499;-80
2021/09/17 07:20:40;;;;;;;1.75;1.13;;;13.70;99.90;;;;;;4952805;28;20098;-80
2021/09/17 07:23:07;;;;;;;8.55;1.52;;;13.60;99.90;;;;;;4936149;29;20130;-80
2021/09/17 07:25:36;;;;;;;6.18;1.10;;;13.60;99.90;;;;;;4936698;29;20062;-79
2021/09/17 07:28:08;;;;;;;5.07;0.95;;;13.70;99.90;;;;;;4935733;29;20062;-80
2021/09/17 07:30:35;;;;;;;1.70;0.82;;;13.60;99.90;;;;;;4936888;29;20062;-81
2021/09/17 07:33:04;;;;;;;3.95;0.75;;;13.70;99.90;;;;;;4936568;29;20505;-80
2021/09/17 07:35:31;;;;;;;23.42;11.40;;;13.60;99.90;;;;;;4953504;29;20142;-80
2021/09/17 07:37:59;;;;;;;135.00;59.78;;;13.50;99.90;;;;;;4936739;29;20051;-80
2021/09/17 07:40:28;;;;;;;21.95;2.78;;;13.60;99.90;;;;;;4936549;29;20063;-80
2021/09/17 07:42:56;;;;;;;6.15;3.80;;;13.50;99.90;;;;;;4936977;29;20078;-80
2021/09/17 07:45:26;;;;;;;6.40;4.10;;;13.60;99.90;;;;;;4936331;29;20110;-80
2021/09/17 07:47:56;;;;;;;7.60;3.83;;;13.50;99.90;;;;;;4936634;29;20090;-79
2021/09/17 07:50:24;;;;;;;14.35;8.48;;;13.50;99.90;;;;;;4952491;29;20126;-80
2021/09/17 07:52:52;;;;;;;5.88;2.20;;;13.40;99.90;;;;;;4953882;29;20051;-80
2021/09/17 07:55:20;;;;;;;8.18;5.22;;;13.50;99.90;;;;;;4936590;29;20833;-80
2021/09/17 07:57:47;;;;;;;7.25;6.50;;;13.50;99.90;;;;;;4953536;29;20380;-80
2021/09/17 08:00:16;;;;;;;3.47;2.05;;;13.50;99.90;;;;;;4935621;29;20162;-80
2021/09/17 08:02:44;;;;;;;8.05;3.33;;;13.60;99.90;;;;;;4951762;29;20082;-80
2021/09/17 08:05:14;;;;;;;10.57;3.92;;;13.60;99.90;;;;;;4952874;29;20496;-80
2021/09/17 08:07:41;;;;;;;3.42;1.48;;;13.80;99.90;;;;;;4935534;29;20063;-80
2021/09/17 08:10:08;;;;;;;3.17;1.80;;;13.80;99.90;;;;;;4953447;29;20373;-80
2021/09/17 08:12:35;;;;;;;2.22;1.20;;;13.80;99.90;;;;;;4935444;29;20055;-80
2021/09/17 08:15:06;;;;;;;2.97;0.95;;;13.80;99.90;;;;;;4952856;29;20405;-80
2021/09/17 08:17:33;;;;;;;8.15;1.40;;;13.80;99.90;;;;;;4952294;29;20162;-80
2021/09/17 08:20:08;;;;;;;2.95;1.30;;;13.80;99.90;;;;;;4935999;29;20051;-80
2021/09/17 08:22:37;;;;;;;4.15;0.82;;;13.90;99.90;;;;;;4949487;29;20066;-79
2021/09/17 08:25:08;;;;;;;4.35;1.10;;;13.80;99.90;;;;;;4929795;29;20051;-80
2021/09/17 08:27:37;;;;;;;4.93;1.20;;;13.80;99.90;;;;;;4929478;29;20152;-80
2021/09/17 08:30:08;;;;;;;2.58;1.20;;;13.90;99.90;;;;;;4929533;29;20106;-81
2021/09/17 08:32:38;;;;;;;4.15;1.02;;;13.90;99.90;;;;;;4932464;29;20058;-80
2021/09/17 08:35:11;;;;;;;11.73;1.70;;;14.00;99.90;;;;;;4932804;29;20047;-80
2021/09/17 08:37:39;;;;;;;2.53;1.05;;;14.10;99.90;;;;;;4932885;29;20078;-80
2021/09/17 08:40:12;;;;;;;6.82;1.85;;;14.10;99.90;;;;;;4933180;29;20055;-80
2021/09/17 08:42:41;;;;;;;4.60;1.00;;;14.30;99.90;;;;;;4934795;29;20117;-80
2021/09/17 08:45:08;;;;;;;1.65;1.02;;;14.10;99.90;;;;;;4956865;29;20135;-80
2021/09/17 08:47:35;;;;;;;4.20;1.17;;;14.10;99.90;;;;;;4956343;29;20464;-81
2021/09/17 08:50:03;;;;;;;3.47;1.08;;;14.00;99.90;;;;;;4956644;29;20827;-81
2021/09/17 08:52:31;;;;;;;1.58;0.80;;;13.80;99.90;;;;;;4939636;29;20135;-81
2021/09/17 08:55:02;;;;;;;2.15;0.80;;;13.60;99.90;;;;;;4956926;29;20397;-81
2021/09/17 08:57:29;;;;;;;2.78;1.30;;;13.50;99.90;;;;;;4956665;29;20074;-81
2021/09/17 08:59:56;;;;;;;2.67;0.95;;;13.40;99.90;;;;;;4965766;28;20552;-81
2021/09/17 09:02:24;;;;;;;1.40;0.90;;;13.30;99.90;;;;;;4953629;29;20090;-81
2021/09/17 09:05:00;;;;;;;1.58;1.00;;;13.20;99.90;;;;;;4957213;29;20105;-80
2021/09/17 09:07:32;;;;;;;5.63;1.20;;;13.40;99.90;;;;;;4940273;29;20051;-81
2021/09/17 09:10:10;;;;;;;4.97;1.20;;;13.40;99.90;;;;;;4940233;29;20259;-82
2021/09/17 09:12:45;;;;;;;4.18;1.48;;;13.60;99.90;;;;;;4956526;29;20590;-82
2021/09/17 09:15:14;;;;;;;3.60;1.40;;;13.70;99.90;;;;;;4939552;29;20428;-82
2021/09/17 09:17:43;;;;;;;4.05;1.70;;;13.70;99.90;;;;;;4939548;29;20043;-81
2021/09/17 09:20:30;;;;;;;1.30;0.70;;;13.70;99.90;;;;;;4939235;29;20501;-81
2021/09/17 09:23:14;;;;;;;1.98;1.00;;;13.70;99.90;;;;;;4956325;29;20103;-82
2021/09/17 09:25:55;;;;;;;4.35;1.05;;;13.80;99.90;;;;;;4956194;29;20512;-82
2021/09/17 09:28:42;;;;;;;4.28;1.08;;;13.80;99.90;;;;;;4957599;29;20055;-81
2021/09/17 09:31:11;;;;;;;1.27;0.90;;;13.90;99.90;;;;;;4940005;29;20082;-81
2021/09/17 09:33:42;;;;;;;3.50;0.80;;;13.80;99.90;;;;;;4939814;29;20094;-82
2021/09/17 09:36:11;;;;;;;1.63;0.70;;;13.90;99.90;;;;;;4956558;29;20122;-81
2021/09/17 09:38:55;;;;;;;3.33;0.70;;;13.90;99.90;;;;;;4956490;29;20105;-82
2021/09/17 09:41:27;;;;;;;1.60;0.63;;;14.00;99.90;;;;;;4956262;29;20090;-82
2021/09/17 09:43:58;;;;;;;2.45;0.73;;;14.20;99.90;;;;;;4954990;28;20090;-82
2021/09/17 09:46:26;;;;;;;3.22;0.68;;;14.40;99.90;;;;;;4955867;29;20133;-82
2021/09/17 09:48:59;;;;;;;3.22;0.80;;;14.40;99.90;;;;;;4955807;29;20055;-82
2021/09/17 09:51:26;;;;;;;0.70;0.47;;;14.50;99.90;;;;;;4939208;29;20090;-82
2021/09/17 09:53:53;;;;;;;0.63;0.50;;;14.50;99.90;;;;;;4938517;29;20560;-82
2021/09/17 09:56:21;;;;;;;0.85;0.30;;;14.40;99.90;;;;;;4939367;29;20134;-83
2021/09/17 09:58:51;;;;;;;8.10;0.45;;;14.30;99.90;;;;;;4938787;29;20058;-82
2021/09/17 10:01:20;;;;;;;0.57;0.40;;;14.30;99.90;;;;;;4956012;29;20055;-82
2021/09/17 10:03:48;;;;;;;2.15;0.50;;;14.30;99.90;;;;;;4955933;29;20393;-82
2021/09/17 10:06:16;;;;;;;0.40;0.40;;;14.40;99.90;;;;;;4938647;29;20636;-82
2021/09/17 10:08:43;;;;;;;1.80;0.80;;;14.20;99.90;;;;;;4955815;29;20089;-82
2021/09/17 10:11:18;;;;;;;1.10;0.73;;;14.20;99.90;;;;;;4938555;29;20147;-82
2021/09/17 10:13:44;;;;;;;2.25;0.90;;;14.30;99.90;;;;;;4939767;29;20071;-82
2021/09/17 10:16:11;;;;;;;6.75;1.00;;;14.60;99.90;;;;;;4956153;29;20070;-81
2021/09/17 10:18:44;;;;;;;2.38;0.73;;;14.70;99.90;;;;;;4936540;29;20629;-81
2021/09/17 10:21:13;;;;;;;1.45;0.60;;;14.80;99.90;;;;;;4936921;29;20115;-81
2021/09/17 10:23:44;;;;;;;1.40;0.70;;;14.90;99.90;;;;;;4953619;29;20634;-81
2021/09/17 10:26:13;;;;;;;0.88;0.43;;;14.80;99.90;;;;;;4971279;28;20086;-82
2021/09/17 10:29:07;;;;;;;4.30;0.77;;;14.80;99.90;;;;;;4938928;29;20094;-81
2021/09/17 10:31:44;;;;;;;4.25;0.50;;;14.70;99.90;;;;;;4937274;29;20050;-81
2021/09/17 10:34:58;;;;;;;1.23;0.80;;;14.60;99.90;;;;;;4955161;29;20051;-81
2021/09/17 10:38:03;;;;;;;1.20;0.77;;;14.70;99.90;;;;;;4927606;29;20059;-81
2021/09/17 10:40:54;;;;;;;1.60;1.08;;;14.90;99.90;;;;;;4955413;29;20047;-82
2021/09/17 10:43:25;;;;;;;0.95;0.70;;;14.90;99.90;;;;;;4935659;29;20549;-83
2021/09/17 10:46:01;;;;;;;0.85;0.70;;;14.80;99.90;;;;;;4919012;29;20052;-82
2021/09/17 10:48:49;;;;;;;0.40;0.40;;;14.90;99.90;;;;;;4952604;29;20051;-83
2021/09/17 10:51:36;;;;;;;3.20;0.60;;;14.90;99.90;;;;;;4922250;29;20658;-82
2021/09/17 10:54:14;;;;;;;0.80;0.47;;;14.90;99.90;;;;;;4931573;29;20070;-82
2021/09/17 10:57:03;;;;;;;1.65;0.50;;;14.80;99.90;;;;;;4954812;29;20142;-81
2021/09/17 10:59:41;;;;;;;1.17;0.32;;;14.80;99.90;;;;;;4953641;29;20056;-82
2021/09/17 11:02:10;;;;;;;0.75;0.40;;;14.70;99.90;;;;;;4936367;29;20062;-83
2021/09/17 11:04:47;;;;;;;0.50;0.20;;;14.90;99.90;;;;;;4937747;29;20493;-82
2021/09/17 11:07:17;;;;;;;0.40;0.30;;;14.80;99.90;;;;;;4937854;29;20073;-82
2021/09/17 11:09:48;;;;;;;0.63;0.30;;;14.60;99.90;;;;;;4937768;29;20145;-82
2021/09/17 11:12:17;;;;;;;0.40;0.30;;;14.20;99.90;;;;;;4937036;29;20129;-82
2021/09/17 11:14:57;;;;;;;0.30;0.20;;;14.30;99.90;;;;;;4937368;29;20043;-82
2021/09/17 11:17:56;;;;;;;1.00;0.38;;;14.10;99.90;;;;;;4936749;29;20503;-81
2021/09/17 11:20:28;;;;;;;1.63;0.50;;;14.20;99.90;;;;;;4943521;29;20134;-81
2021/09/17 11:23:02;;;;;;;5.60;1.48;;;14.30;99.90;;;;;;4936550;29;20048;-81
2021/09/17 11:25:39;;;;;;;2.95;0.50;;;14.50;99.90;;;;;;4954432;29;20146;-82
2021/09/17 11:28:32;;;;;;;0.80;0.47;;;14.70;99.90;;;;;;4954518;29;20484;-81
2021/09/17 11:31:16;;;;;;;2.88;0.60;;;14.80;99.90;;;;;;4937510;29;20130;-81
2021/09/17 11:33:53;;;;;;;1.88;0.50;;;14.70;99.90;;;;;;4937478;29;20492;-82
2021/09/17 11:36:38;;;;;;;0.75;0.50;;;14.80;99.90;;;;;;4954883;29;20113;-81
2021/09/17 11:39:11;;;;;;;3.30;0.52;;;15.00;99.90;;;;;;4920626;29;20126;-82
2021/09/17 11:41:39;;;;;;;0.63;0.38;;;15.20;99.90;;;;;;4936993;29;20870;-82
2021/09/17 11:44:06;;;;;;;3.30;0.32;;;15.20;99.90;;;;;;4937187;29;20079;-82
2021/09/17 11:46:34;;;;;;;1.27;0.40;;;15.10;99.90;;;;;;4954061;29;20051;-82
2021/09/17 11:49:03;;;;;;;0.30;0.25;;;14.90;99.90;;;;;;4954185;29;20720;-82
2021/09/17 11:51:30;;;;;;;0.63;0.30;;;15.10;99.90;;;;;;4936974;29;20146;-82
2021/09/17 11:53:57;;;;;;;1.75;0.30;;;15.20;99.90;;;;;;4969165;28;20082;-81
2021/09/17 11:56:23;;;;;;;2.85;0.52;;;15.10;99.90;;;;;;4927970;29;20074;-81
2021/09/17 11:58:50;;;;;;;1.10;0.20;;;15.00;99.90;;;;;;4954306;29;20075;-82
2021/09/17 12:01:22;;;;;;;1.63;0.47;;;14.80;99.90;;;;;;4937762;29;20141;-81
2021/09/17 12:03:52;;;;;;;0.70;0.45;;;14.60;99.90;;;;;;4953392;29;20058;-81
2021/09/17 12:06:19;;;;;;;3.22;0.77;;;14.60;99.90;;;;;;4952219;29;20737;-81
2021/09/17 12:08:46;;;;;;;3.33;0.60;;;14.60;99.90;;;;;;4952997;29;20051;-81
2021/09/17 12:11:22;;;;;;;0.95;0.65;;;14.70;99.90;;;;;;4953391;29;20051;-80
2021/09/17 12:13:54;;;;;;;0.47;0.47;;;14.80;99.90;;;;;;4953937;29;20131;-81
2021/09/17 12:16:21;;;;;;;2.15;0.47;;;14.60;99.90;;;;;;4953269;29;20595;-81
2021/09/17 12:19:02;;;;;;;2.67;0.52;;;14.60;99.90;;;;;;4936317;29;20769;-82
2021/09/17 12:21:29;;;;;;;1.75;0.70;;;14.70;99.90;;;;;;4953363;29;20051;-82
2021/09/17 12:24:22;;;;;;;0.77;0.50;;;14.60;99.90;;;;;;4935905;29;20074;-81
2021/09/17 12:26:55;;;;;;;1.33;0.50;;;14.80;99.90;;;;;;4928591;29;20102;-81
2021/09/17 12:29:23;;;;;;;1.83;0.50;;;15.00;99.90;;;;;;4937871;29;20055;-81
2021/09/17 12:31:51;;;;;;;2.35;0.60;;;15.10;99.90;;;;;;4938003;29;20460;-81
2021/09/17 12:34:22;;;;;;;1.38;0.32;;;14.80;99.90;;;;;;4938078;29;20086;-82
2021/09/17 12:36:51;;;;;;;3.00;0.50;;;14.70;99.90;;;;;;4936506;29;20134;-81
2021/09/17 12:39:26;;;;;;;3.58;0.52;;;14.40;99.90;;;;;;4954400;29;20611;-82
2021/09/17 12:42:10;;;;;;;0.30;0.30;;;14.40;99.90;;;;;;4937754;29;20097;-82
2021/09/17 12:44:42;;;;;;;2.63;0.50;;;14.40;99.90;;;;;;4953959;29;20063;-82
2021/09/17 12:47:09;;;;;;;3.58;0.55;;;14.50;99.90;;;;;;4953046;29;20051;-82
2021/09/17 12:49:36;;;;;;;0.57;0.40;;;14.40;99.90;;;;;;4953612;29;20056;-83
2021/09/17 12:52:06;;;;;;;3.40;0.40;;;14.30;99.90;;;;;;4953542;29;20480;-82
2021/09/17 12:54:39;;;;;;;3.97;0.43;;;14.30;99.90;;;;;;4936350;29;20102;-82
2021/09/17 12:57:21;;;;;;;9.57;0.50;;;14.20;99.90;;;;;;4954902;29;20714;-82
2021/09/17 12:59:59;;;;;;;0.85;0.30;;;14.10;99.90;;;;;;4947057;29;20880;-82